Time,TemperatureF,DewpointF,PressureIn,WindDirection,WindDirectionDegrees,WindSpeedMPH,WindSpeedGustMPH,Humidity,HourlyPrecipIn,Conditions,Clouds,dailyrainin,SolarRadiationWatts/m^2,SoftwareType,DateUTC
2013-03-06 00:01:00,36.0,36.0,-100.00,SW,236,10.0,14.0,99,-99.99,,,-99.99,0.000000,,2013-03-06 08:01:00,
2013-03-06 00:11:00,36.0,36.0,-100.00,SW,232,10.0,14.0,99,-99.99,,,-99.99,0.000000,,2013-03-06 08:11:00,
2013-03-06 00:21:00,35.0,35.0,-100.00,SW,218,5.0,9.0,100,-99.99,,,-99.99,0.000000,,2013-03-06 08:21:00,
2013-03-06 00:31:00,36.0,36.0,-100.00,SSW,204,8.0,13.0,100,-99.99,,,-99.99,0.000000,,2013-03-06 08:31:00,
2013-03-06 00:42:00,36.0,36.0,-100.00,SSW,206,9.0,14.0,100,-99.99,,,-99.99,0.000000,,2013-03-06 08:42:00,
2013-03-06 00:52:00,37.0,37.0,-100.00,SSW,209,11.0,19.0,99,-99.99,,,-99.99,0.000000,,2013-03-06 08:52:00,
2013-03-06 01:01:00,37.0,37.0,-100.00,SSW,209,11.0,19.0,99,-99.99,,,-99.99,0.000000,,2013-03-06 09:01:00,
2013-03-06 01:12:00,37.0,36.0,-100.00,SSW,206,12.0,20.0,96,-99.99,,,-99.99,0.000000,,2013-03-06 09:12:00,
2013-03-06 01:21:00,37.0,36.0,-100.00,SSW,210,9.0,15.0,96,-99.99,,,-99.99,0.000000,,2013-03-06 09:21:00,
2013-03-06 01:31:00,37.0,36.0,-100.00,SW,219,13.0,24.0,96,-99.99,,,-99.99,0.000000,,2013-03-06 09:31:00,
2013-03-06 01:41:00,37.0,36.0,-100.00,WSW,243,10.0,22.0,96,-99.99,,,-99.99,0.000000,,2013-03-06 09:41:00,
2013-03-06 01:51:00,37.0,36.0,-100.00,SW,217,10.0,21.0,97,-99.99,,,-99.99,0.000000,,2013-03-06 09:51:00,
2013-03-06 02:01:00,37.0,36.0,-100.00,WSW,250,12.0,23.0,98,-99.99,,,-99.99,0.000000,,2013-03-06 10:01:00,
2013-03-06 02:11:00,36.0,35.0,-100.00,SW,215,11.0,22.0,96,-99.99,,,-99.99,0.000000,,2013-03-06 10:11:00,
2013-03-06 02:21:00,36.0,35.0,-100.00,SSW,199,10.0,17.0,97,-99.99,,,-99.99,0.000000,,2013-03-06 10:21:00,
2013-03-06 02:31:00,36.0,35.0,-100.00,SW,216,11.0,20.0,98,-99.99,,,-99.99,0.000000,,2013-03-06 10:31:00,
2013-03-06 02:41:00,36.0,35.0,-100.00,WSW,243,12.0,25.0,97,-99.99,,,-99.99,0.000000,,2013-03-06 10:41:00,
2013-03-06 02:51:00,36.0,36.0,-100.00,WSW,251,12.0,19.0,99,-99.99,,,-99.99,0.000000,,2013-03-06 10:51:00,
2013-03-06 03:01:00,36.0,36.0,-100.00,WSW,251,12.0,19.0,99,-99.99,,,-99.99,0.000000,,2013-03-06 11:01:00,
2013-03-06 03:11:00,36.0,36.0,-100.00,WSW,239,10.0,20.0,100,-99.99,,,-99.99,0.000000,,2013-03-06 11:11:00,
2013-03-06 03:22:00,36.0,36.0,-100.00,SSW,201,8.0,13.0,100,-99.99,,,-99.99,0.000000,,2013-03-06 11:22:00,
2013-03-06 03:31:00,36.0,36.0,-100.00,SSW,206,9.0,16.0,100,-99.99,,,-99.99,0.000000,,2013-03-06 11:31:00,
2013-03-06 03:42:00,36.0,36.0,-100.00,SW,218,6.0,16.0,100,-99.99,,,-99.99,0.000000,,2013-03-06 11:42:00,
2013-03-06 03:52:00,35.0,35.0,-100.00,SSW,210,9.0,15.0,100,-99.99,,,-99.99,0.000000,,2013-03-06 11:52:00,
2013-03-06 04:01:00,35.0,35.0,-100.00,SSW,202,7.0,16.0,100,-99.99,,,-99.99,0.000000,,2013-03-06 12:01:00,
2013-03-06 04:11:00,35.0,35.0,-100.00,West,272,8.0,15.0,100,-99.99,,,-99.99,0.000000,,2013-03-06 12:11:00,
2013-03-06 04:21:00,35.0,35.0,-100.00,WSW,238,6.0,12.0,100,-99.99,,,-99.99,0.000000,,2013-03-06 12:21:00,
2013-03-06 04:32:00,35.0,35.0,-100.00,WSW,247,6.0,13.0,100,-99.99,,,-99.99,0.000000,,2013-03-06 12:32:00,
2013-03-06 04:42:00,35.0,35.0,-100.00,West,271,7.0,13.0,100,-99.99,,,-99.99,0.000000,,2013-03-06 12:42:00,
2013-03-06 04:52:00,35.0,35.0,-100.00,West,266,11.0,16.0,100,-99.99,,,-99.99,0.000000,,2013-03-06 12:52:00,
2013-03-06 05:01:00,35.0,35.0,-100.00,West,259,10.0,17.0,100,-99.99,,,-99.99,0.000000,,2013-03-06 13:01:00,
2013-03-06 05:11:00,35.0,35.0,-100.00,WSW,245,6.0,11.0,100,-99.99,,,-99.99,0.000000,,2013-03-06 13:11:00,
2013-03-06 05:21:00,35.0,35.0,-100.00,South,186,5.0,10.0,100,-99.99,,,-99.99,0.000000,,2013-03-06 13:21:00,
2013-03-06 05:31:00,34.0,34.0,-100.00,SSW,212,5.0,9.0,100,-99.99,,,-99.99,0.000000,,2013-03-06 13:31:00,
2013-03-06 05:42:00,34.0,34.0,-100.00,SSE,147,4.0,9.0,100,-99.99,,,-99.99,0.000000,,2013-03-06 13:42:00,
2013-03-06 05:51:00,34.0,34.0,-100.00,SE,144,4.0,11.0,100,-99.99,,,-99.99,0.000000,,2013-03-06 13:51:00,
2013-03-06 06:01:00,34.0,34.0,-100.00,WSW,256,4.0,8.0,100,-99.99,,,-99.99,0.000000,,2013-03-06 14:01:00,
2013-03-06 06:11:00,34.0,34.0,-100.00,SW,220,6.0,12.0,100,-99.99,,,-99.99,0.000000,,2013-03-06 14:11:00,
2013-03-06 06:21:00,34.0,34.0,-100.00,WSW,249,8.0,15.0,100,-99.99,,,-99.99,0.000000,,2013-03-06 14:21:00,
2013-03-06 06:32:00,34.0,34.0,-100.00,WSW,237,7.0,15.0,100,-99.99,,,-99.99,0.000000,,2013-03-06 14:32:00,
2013-03-06 06:41:00,34.0,34.0,-100.00,SW,235,5.0,11.0,100,-99.99,,,-99.99,0.000000,,2013-03-06 14:41:00,
2013-03-06 06:52:00,34.0,34.0,-100.00,WSW,250,10.0,17.0,100,-99.99,,,-99.99,0.000000,,2013-03-06 14:52:00,
2013-03-06 07:01:00,34.0,34.0,-100.00,WSW,246,10.0,16.0,100,-99.99,,,-99.99,0.000000,,2013-03-06 15:01:00,
2013-03-06 07:11:00,34.0,34.0,-100.00,WSW,245,9.0,19.0,100,-99.99,,,-99.99,0.000000,,2013-03-06 15:11:00,
2013-03-06 07:21:00,34.0,34.0,-100.00,SSW,213,8.0,14.0,100,-99.99,,,-99.99,0.000000,,2013-03-06 15:21:00,
2013-03-06 07:32:00,34.0,34.0,-100.00,SSW,195,5.0,11.0,100,-99.99,,,-99.99,0.000000,,2013-03-06 15:32:00,
2013-03-06 07:41:00,34.0,34.0,-100.00,South,178,4.0,7.0,100,-99.99,,,-99.99,0.000000,,2013-03-06 15:41:00,
2013-03-06 07:52:00,34.0,34.0,-100.00,South,178,4.0,7.0,100,-99.99,,,-99.99,0.000000,,2013-03-06 15:52:00,
2013-03-06 08:01:00,36.0,36.0,-100.00,WSW,253,2.0,5.0,100,-99.99,,,-99.99,0.000000,,2013-03-06 16:01:00,
2013-03-06 08:11:00,37.0,37.0,-100.00,South,184,2.0,3.0,100,-99.99,,,-99.99,0.000000,,2013-03-06 16:11:00,
2013-03-06 08:21:00,37.0,37.0,-100.00,WNW,282,1.0,2.0,100,-99.99,,,-99.99,0.000000,,2013-03-06 16:21:00,
2013-03-06 08:32:00,38.0,38.0,-100.00,WNW,298,1.0,3.0,99,-99.99,,,-99.99,0.000000,,2013-03-06 16:32:00,
2013-03-06 08:41:00,39.0,37.0,-100.00,WNW,284,2.0,3.0,91,-99.99,,,-99.99,0.000000,,2013-03-06 16:41:00,
2013-03-06 08:51:00,41.0,37.0,-100.00,WSW,239,1.0,2.0,87,-99.99,,,-99.99,0.000000,,2013-03-06 16:51:00,
2013-03-06 09:01:00,43.0,34.0,-100.00,SW,227,2.0,3.0,71,-99.99,,,-99.99,0.000000,,2013-03-06 17:01:00,
2013-03-06 09:11:00,44.0,31.0,-100.00,SW,234,3.0,5.0,60,-99.99,,,-99.99,0.000000,,2013-03-06 17:11:00,
2013-03-06 09:21:00,46.0,28.0,-100.00,SW,235,5.0,9.0,50,-99.99,,,-99.99,0.000000,,2013-03-06 17:21:00,
2013-03-06 09:31:00,47.0,22.0,-100.00,WSW,245,9.0,13.0,37,-99.99,,,-99.99,0.000000,,2013-03-06 17:31:00,
2013-03-06 09:41:00,48.0,21.0,-100.00,WSW,250,10.0,17.0,34,-99.99,,,-99.99,0.000000,,2013-03-06 17:41:00,
2013-03-06 09:52:00,48.0,21.0,-100.00,WSW,250,9.0,13.0,34,-99.99,,,-99.99,0.000000,,2013-03-06 17:52:00,
2013-03-06 10:01:00,48.0,21.0,-100.00,WSW,249,10.0,15.0,34,-99.99,,,-99.99,0.000000,,2013-03-06 18:01:00,
2013-03-06 10:28:00,50.0,21.0,-100.00,WSW,253,11.0,15.0,31,-99.99,,,-99.99,0.000000,,2013-03-06 18:28:00,
2013-03-06 10:42:00,50.0,24.0,-100.00,WSW,251,11.0,16.0,36,-99.99,,,-99.99,0.000000,,2013-03-06 18:42:00,
2013-03-06 10:52:00,50.0,26.0,-100.00,WSW,243,11.0,17.0,39,-99.99,,,-99.99,0.000000,,2013-03-06 18:52:00,
2013-03-06 11:02:00,50.0,25.0,-100.00,WSW,252,12.0,20.0,37,-99.99,,,-99.99,0.000000,,2013-03-06 19:02:00,
2013-03-06 11:11:00,51.0,28.0,-100.00,WSW,245,12.0,18.0,40,-99.99,,,-99.99,0.000000,,2013-03-06 19:11:00,
2013-03-06 11:21:00,50.0,33.0,-100.00,SW,224,10.0,16.0,52,-99.99,,,-99.99,0.000000,,2013-03-06 19:21:00,
2013-03-06 11:32:00,50.0,34.0,-100.00,SW,229,10.0,13.0,55,-99.99,,,-99.99,0.000000,,2013-03-06 19:32:00,
2013-03-06 11:42:00,50.0,34.0,-100.00,SW,228,9.0,14.0,55,-99.99,,,-99.99,0.000000,,2013-03-06 19:42:00,
2013-03-06 11:52:00,50.0,35.0,-100.00,SW,230,10.0,14.0,56,-99.99,,,-99.99,0.000000,,2013-03-06 19:52:00,
2013-03-06 12:01:00,48.0,35.0,-100.00,SW,233,11.0,16.0,61,-99.99,,,-99.99,0.000000,,2013-03-06 20:01:00,
2013-03-06 12:11:00,49.0,35.0,-100.00,SW,222,9.0,13.0,59,-99.99,,,-99.99,0.000000,,2013-03-06 20:11:00,
2013-03-06 12:22:00,50.0,34.0,-100.00,SW,225,7.0,11.0,55,-99.99,,,-99.99,0.000000,,2013-03-06 20:22:00,
2013-03-06 12:32:00,51.0,34.0,-100.00,SW,230,6.0,10.0,52,-99.99,,,-99.99,0.000000,,2013-03-06 20:32:00,
2013-03-06 12:42:00,51.0,33.0,-100.00,SW,236,6.0,11.0,50,-99.99,,,-99.99,0.000000,,2013-03-06 20:42:00,
2013-03-06 12:52:00,52.0,31.0,-100.00,SW,226,9.0,15.0,44,-99.99,,,-99.99,0.000000,,2013-03-06 20:52:00,
2013-03-06 13:01:00,53.0,23.0,-100.00,SW,231,13.0,21.0,31,-99.99,,,-99.99,0.000000,,2013-03-06 21:01:00,
2013-03-06 13:11:00,53.0,14.0,-100.00,WSW,246,14.0,19.0,21,-99.99,,,-99.99,0.000000,,2013-03-06 21:11:00,
2013-03-06 13:21:00,53.0,25.0,-100.00,WSW,247,13.0,20.0,34,-99.99,,,-99.99,0.000000,,2013-03-06 21:21:00,
2013-03-06 13:31:00,51.0,34.0,-100.00,WSW,251,14.0,21.0,52,-99.99,,,-99.99,0.000000,,2013-03-06 21:31:00,
2013-03-06 13:42:00,49.0,37.0,-100.00,WSW,245,14.0,21.0,62,-99.99,,,-99.99,0.000000,,2013-03-06 21:42:00,
2013-03-06 13:51:00,48.0,36.0,-100.00,WSW,254,14.0,22.0,64,-99.99,,,-99.99,0.000000,,2013-03-06 21:51:00,
2013-03-06 14:01:00,47.0,36.0,-100.00,WSW,245,14.0,21.0,66,-99.99,,,-99.99,0.000000,,2013-03-06 22:01:00,
2013-03-06 14:11:00,47.0,37.0,-100.00,WSW,253,16.0,22.0,69,-99.99,,,-99.99,0.000000,,2013-03-06 22:11:00,
2013-03-06 14:21:00,47.0,38.0,-100.00,WSW,256,16.0,22.0,70,-99.99,,,-99.99,0.000000,,2013-03-06 22:21:00,
2013-03-06 14:31:00,47.0,38.0,-100.00,WSW,252,16.0,22.0,70,-99.99,,,-99.99,0.000000,,2013-03-06 22:31:00,
2013-03-06 14:41:00,47.0,37.0,-100.00,West,261,18.0,24.0,69,-99.99,,,-99.99,0.000000,,2013-03-06 22:41:00,
2013-03-06 14:51:00,47.0,38.0,-100.00,WSW,258,18.0,24.0,70,-99.99,,,-99.99,0.000000,,2013-03-06 22:51:00,
2013-03-06 15:01:00,46.0,37.0,-100.00,West,262,17.0,23.0,70,-99.99,,,-99.99,0.000000,,2013-03-06 23:01:00,
2013-03-06 15:11:00,46.0,37.0,-100.00,West,260,17.0,25.0,71,-99.99,,,-99.99,0.000000,,2013-03-06 23:11:00,
2013-03-06 15:21:00,46.0,36.0,-100.00,WSW,255,17.0,23.0,69,-99.99,,,-99.99,0.000000,,2013-03-06 23:21:00,
2013-03-06 15:31:00,46.0,36.0,-100.00,WSW,254,18.0,22.0,69,-99.99,,,-99.99,0.000000,,2013-03-06 23:31:00,
2013-03-06 15:41:00,46.0,37.0,-100.00,WSW,251,16.0,20.0,70,-99.99,,,-99.99,0.000000,,2013-03-06 23:41:00,
2013-03-06 15:52:00,46.0,37.0,-100.00,WSW,251,16.0,20.0,70,-99.99,,,-99.99,0.000000,,2013-03-06 23:52:00,
2013-03-06 16:01:00,47.0,38.0,-100.00,WSW,245,14.0,20.0,70,-99.99,,,-99.99,0.000000,,2013-03-07 00:01:00,
2013-03-06 16:11:00,47.0,37.0,-100.00,WSW,252,14.0,19.0,69,-99.99,,,-99.99,0.000000,,2013-03-07 00:11:00,
2013-03-06 16:21:00,47.0,38.0,-100.00,WSW,252,15.0,20.0,70,-99.99,,,-99.99,0.000000,,2013-03-07 00:21:00,
2013-03-06 16:32:00,47.0,38.0,-100.00,WSW,251,12.0,18.0,72,-99.99,,,-99.99,0.000000,,2013-03-07 00:32:00,
2013-03-06 16:41:00,47.0,38.0,-100.00,WSW,251,12.0,18.0,72,-99.99,,,-99.99,0.000000,,2013-03-07 00:41:00,
2013-03-06 16:51:00,46.0,38.0,-100.00,WSW,246,12.0,17.0,74,-99.99,,,-99.99,0.000000,,2013-03-07 00:51:00,
2013-03-06 17:01:00,46.0,39.0,-100.00,WSW,246,13.0,18.0,75,-99.99,,,-99.99,0.000000,,2013-03-07 01:01:00,
2013-03-06 17:11:00,45.0,38.0,-100.00,WSW,248,13.0,20.0,77,-99.99,,,-99.99,0.000000,,2013-03-07 01:11:00,
2013-03-06 17:21:00,44.0,38.0,-100.00,WSW,242,12.0,16.0,79,-99.99,,,-99.99,0.000000,,2013-03-07 01:21:00,
2013-03-06 17:31:00,44.0,39.0,-100.00,WSW,251,13.0,17.0,82,-99.99,,,-99.99,0.000000,,2013-03-07 01:31:00,
2013-03-06 17:41:00,43.0,38.0,-100.00,WSW,244,12.0,19.0,84,-99.99,,,-99.99,0.000000,,2013-03-07 01:41:00,
2013-03-06 17:51:00,42.0,38.0,-100.00,WSW,241,11.0,17.0,85,-99.99,,,-99.99,0.000000,,2013-03-07 01:51:00,
2013-03-06 18:01:00,42.0,39.0,-100.00,WSW,239,11.0,15.0,88,-99.99,,,-99.99,0.000000,,2013-03-07 02:01:00,
2013-03-06 18:11:00,42.0,39.0,-100.00,WSW,245,9.0,15.0,89,-99.99,,,-99.99,0.000000,,2013-03-07 02:11:00,
2013-03-06 18:21:00,41.0,38.0,-100.00,WSW,245,10.0,17.0,90,-99.99,,,-99.99,0.000000,,2013-03-07 02:21:00,
2013-03-06 18:31:00,41.0,39.0,-100.00,WSW,247,10.0,16.0,91,-99.99,,,-99.99,0.000000,,2013-03-07 02:31:00,
2013-03-06 18:41:00,41.0,39.0,-100.00,WSW,247,10.0,16.0,91,-99.99,,,-99.99,0.000000,,2013-03-07 02:41:00,
2013-03-06 18:51:00,41.0,39.0,-100.00,WSW,247,10.0,16.0,91,-99.99,,,-99.99,0.000000,,2013-03-07 02:51:00,
2013-03-06 19:01:00,39.0,37.0,-100.00,WSW,247,7.0,10.0,94,-99.99,,,-99.99,0.000000,,2013-03-07 03:01:00,
2013-03-06 19:11:00,39.0,38.0,-100.00,WSW,255,6.0,8.0,95,-99.99,,,-99.99,0.000000,,2013-03-07 03:11:00,
2013-03-06 19:21:00,39.0,37.0,-100.00,WSW,249,6.0,8.0,94,-99.99,,,-99.99,0.000000,,2013-03-07 03:21:00,
2013-03-06 19:31:00,38.0,37.0,-100.00,SW,234,6.0,10.0,96,-99.99,,,-99.99,0.000000,,2013-03-07 03:31:00,
2013-03-06 19:41:00,38.0,37.0,-100.00,WSW,239,6.0,12.0,97,-99.99,,,-99.99,0.000000,,2013-03-07 03:41:00,
2013-03-06 19:51:00,38.0,37.0,-100.00,WSW,255,5.0,10.0,98,-99.99,,,-99.99,0.000000,,2013-03-07 03:51:00,
2013-03-06 20:01:00,38.0,37.0,-100.00,WSW,242,6.0,10.0,98,-99.99,,,-99.99,0.000000,,2013-03-07 04:01:00,
2013-03-06 20:11:00,38.0,38.0,-100.00,WSW,244,6.0,10.0,99,-99.99,,,-99.99,0.000000,,2013-03-07 04:11:00,
2013-03-06 20:21:00,38.0,38.0,-100.00,WSW,244,6.0,11.0,99,-99.99,,,-99.99,0.000000,,2013-03-07 04:21:00,
2013-03-06 20:31:00,38.0,38.0,-100.00,WSW,245,7.0,12.0,99,-99.99,,,-99.99,0.000000,,2013-03-07 04:31:00,
2013-03-06 20:41:00,38.0,38.0,-100.00,WSW,246,5.0,9.0,99,-99.99,,,-99.99,0.000000,,2013-03-07 04:41:00,
2013-03-06 20:51:00,39.0,38.0,-100.00,West,261,6.0,8.0,97,-99.99,,,-99.99,0.000000,,2013-03-07 04:51:00,
2013-03-06 21:01:00,39.0,38.0,-100.00,West,261,6.0,8.0,97,-99.99,,,-99.99,0.000000,,2013-03-07 05:01:00,
2013-03-06 21:12:00,38.0,37.0,-100.00,SW,228,5.0,8.0,97,-99.99,,,-99.99,0.000000,,2013-03-07 05:12:00,
2013-03-06 21:22:00,38.0,37.0,-100.00,WSW,242,4.0,7.0,98,-99.99,,,-99.99,0.000000,,2013-03-07 05:22:00,
2013-03-06 21:31:00,38.0,37.0,-100.00,SW,235,3.0,5.0,98,-99.99,,,-99.99,0.000000,,2013-03-07 05:31:00,
2013-03-06 21:41:00,38.0,37.0,-100.00,SW,235,3.0,5.0,98,-99.99,,,-99.99,0.000000,,2013-03-07 05:41:00,
2013-03-06 21:52:00,38.0,37.0,-100.00,WSW,248,3.0,5.0,97,-99.99,,,-99.99,0.000000,,2013-03-07 05:52:00,
2013-03-06 22:01:00,38.0,37.0,-100.00,WSW,241,3.0,4.0,96,-99.99,,,-99.99,0.000000,,2013-03-07 06:01:00,
2013-03-06 22:11:00,38.0,37.0,-100.00,SW,236,2.0,3.0,95,-99.99,,,-99.99,0.000000,,2013-03-07 06:11:00,
2013-03-06 22:21:00,38.0,36.0,-100.00,West,259,2.0,7.0,94,-99.99,,,-99.99,0.000000,,2013-03-07 06:21:00,
2013-03-06 22:31:00,38.0,36.0,-100.00,West,259,5.0,7.0,91,-99.99,,,-99.99,0.000000,,2013-03-07 06:31:00,
2013-03-06 22:41:00,38.0,36.0,-100.00,West,274,6.0,8.0,93,-99.99,,,-99.99,0.000000,,2013-03-07 06:41:00,
2013-03-06 22:51:00,38.0,37.0,-100.00,West,277,7.0,9.0,95,-99.99,,,-99.99,0.000000,,2013-03-07 06:51:00,
2013-03-06 23:01:00,38.0,37.0,-100.00,West,277,7.0,9.0,95,-99.99,,,-99.99,0.000000,,2013-03-07 07:01:00,
2013-03-06 23:11:00,38.0,37.0,-100.00,West,272,5.0,7.0,95,-99.99,,,-99.99,0.000000,,2013-03-07 07:11:00,
2013-03-06 23:21:00,38.0,37.0,-100.00,West,268,5.0,7.0,95,-99.99,,,-99.99,0.000000,,2013-03-07 07:21:00,
2013-03-06 23:31:00,38.0,36.0,-100.00,West,278,5.0,8.0,93,-99.99,,,-99.99,0.000000,,2013-03-07 07:31:00,
2013-03-06 23:41:00,39.0,36.0,-100.00,West,280,7.0,11.0,89,-99.99,,,-99.99,0.000000,,2013-03-07 07:41:00,
2013-03-06 23:52:00,39.0,35.0,-100.00,West,274,8.0,12.0,85,-99.99,,,-99.99,0.000000,,2013-03-07 07:52:00,